sensor_id;sensor_type;location;lat;lon;timestamp;P1;durP1;ratioP1;P2;durP2;ratioP2
21507;SDS011;10915;54.352;9.074;2024-01-30T00:01:22;55.90;;;35.67;;
21507;SDS011;10915;54.352;9.074;2024-01-30T00:03:51;54.90;;;34.67;;
21507;SDS011;10915;54.352;9.074;2024-01-30T00:06:20;50.23;;;35.40;;
21507;SDS011;10915;54.352;9.074;2024-01-30T00:08:48;51.07;;;33.30;;
21507;SDS011;10915;54.352;9.074;2024-01-30T00:11:15;57.10;;;35.13;;
21507;SDS011;10915;54.352;9.074;2024-01-30T00:13:41;49.00;;;33.77;;
21507;SDS011;10915;54.352;9.074;2024-01-30T00:16:06;52.23;;;34.17;;
21507;SDS011;10915;54.352;9.074;2024-01-30T00:18:35;53.13;;;33.13;;
21507;SDS011;10915;54.352;9.074;2024-01-30T00:21:01;49.87;;;32.90;;
21507;SDS011;10915;54.352;9.074;2024-01-30T00:23:26;50.90;;;32.40;;
21507;SDS011;10915;54.352;9.074;2024-01-30T00:25:52;51.17;;;32.17;;
21507;SDS011;10915;54.352;9.074;2024-01-30T00:28:17;48.13;;;31.63;;
21507;SDS011;10915;54.352;9.074;2024-01-30T00:30:43;47.43;;;30.27;;
21507;SDS011;10915;54.352;9.074;2024-01-30T00:33:09;42.80;;;30.27;;
21507;SDS011;10915;54.352;9.074;2024-01-30T00:35:34;54.03;;;33.20;;
21507;SDS011;10915;54.352;9.074;2024-01-30T00:38:00;50.30;;;32.63;;
21507;SDS011;10915;54.352;9.074;2024-01-30T00:40:26;50.50;;;33.87;;
21507;SDS011;10915;54.352;9.074;2024-01-30T00:42:52;47.10;;;33.30;;
21507;SDS011;10915;54.352;9.074;2024-01-30T00:45:18;53.73;;;33.43;;
21507;SDS011;10915;54.352;9.074;2024-01-30T00:47:44;48.73;;;32.13;;
21507;SDS011;10915;54.352;9.074;2024-01-30T00:50:10;49.00;;;32.53;;
21507;SDS011;10915;54.352;9.074;2024-01-30T00:52:36;46.70;;;31.90;;
21507;SDS011;10915;54.352;9.074;2024-01-30T00:55:01;49.50;;;32.53;;
21507;SDS011;10915;54.352;9.074;2024-01-30T00:57:27;47.57;;;33.10;;
21507;SDS011;10915;54.352;9.074;2024-01-30T00:59:53;52.33;;;33.40;;
21507;SDS011;10915;54.352;9.074;2024-01-30T01:02:19;48.30;;;33.83;;
21507;SDS011;10915;54.352;9.074;2024-01-30T01:04:45;48.77;;;32.70;;
21507;SDS011;10915;54.352;9.074;2024-01-30T01:07:11;47.37;;;31.70;;
21507;SDS011;10915;54.352;9.074;2024-01-30T01:09:36;54.57;;;32.93;;
21507;SDS011;10915;54.352;9.074;2024-01-30T01:12:02;41.47;;;30.23;;
21507;SDS011;10915;54.352;9.074;2024-01-30T01:14:29;45.60;;;31.10;;
21507;SDS011;10915;54.352;9.074;2024-01-30T01:16:55;46.67;;;32.53;;
21507;SDS011;10915;54.352;9.074;2024-01-30T01:19:21;38.10;;;28.63;;
21507;SDS011;10915;54.352;9.074;2024-01-30T01:21:47;40.30;;;29.67;;
21507;SDS011;10915;54.352;9.074;2024-01-30T01:24:12;37.80;;;29.80;;
21507;SDS011;10915;54.352;9.074;2024-01-30T01:26:38;38.03;;;28.87;;
21507;SDS011;10915;54.352;9.074;2024-01-30T01:29:03;38.80;;;28.87;;
21507;SDS011;10915;54.352;9.074;2024-01-30T01:31:35;38.73;;;30.77;;
21507;SDS011;10915;54.352;9.074;2024-01-30T01:34:04;45.13;;;29.10;;
21507;SDS011;10915;54.352;9.074;2024-01-30T01:36:31;36.90;;;29.23;;
21507;SDS011;10915;54.352;9.074;2024-01-30T01:38:56;36.50;;;27.37;;
21507;SDS011;10915;54.352;9.074;2024-01-30T01:41:22;36.17;;;28.60;;
21507;SDS011;10915;54.352;9.074;2024-01-30T01:43:47;36.17;;;28.17;;
21507;SDS011;10915;54.352;9.074;2024-01-30T01:46:13;34.23;;;27.67;;
21507;SDS011;10915;54.352;9.074;2024-01-30T01:48:38;34.03;;;27.90;;
21507;SDS011;10915;54.352;9.074;2024-01-30T01:51:04;36.03;;;26.90;;
21507;SDS011;10915;54.352;9.074;2024-01-30T01:53:31;35.30;;;28.47;;
21507;SDS011;10915;54.352;9.074;2024-01-30T01:55:57;35.57;;;27.47;;
21507;SDS011;10915;54.352;9.074;2024-01-30T01:58:23;32.83;;;26.70;;
21507;SDS011;10915;54.352;9.074;2024-01-30T02:00:53;34.00;;;26.30;;
21507;SDS011;10915;54.352;9.074;2024-01-30T02:03:19;33.27;;;27.57;;
21507;SDS011;10915;54.352;9.074;2024-01-30T02:05:49;34.83;;;27.53;;
21507;SDS011;10915;54.352;9.074;2024-01-30T02:08:15;33.57;;;27.50;;
21507;SDS011;10915;54.352;9.074;2024-01-30T02:10:41;32.93;;;26.27;;
21507;SDS011;10915;54.352;9.074;2024-01-30T02:13:07;40.20;;;28.23;;
21507;SDS011;10915;54.352;9.074;2024-01-30T02:15:32;34.87;;;26.27;;
21507;SDS011;10915;54.352;9.074;2024-01-30T02:17:58;33.90;;;26.37;;
21507;SDS011;10915;54.352;9.074;2024-01-30T02:20:23;33.37;;;27.73;;
21507;SDS011;10915;54.352;9.074;2024-01-30T02:22:51;34.23;;;28.43;;
21507;SDS011;10915;54.352;9.074;2024-01-30T02:25:17;35.93;;;28.27;;
21507;SDS011;10915;54.352;9.074;2024-01-30T02:27:43;34.43;;;26.70;;
21507;SDS011;10915;54.352;9.074;2024-01-30T02:30:09;37.20;;;28.43;;
21507;SDS011;10915;54.352;9.074;2024-01-30T02:32:35;34.80;;;29.17;;
21507;SDS011;10915;54.352;9.074;2024-01-30T02:35:00;36.20;;;29.70;;
21507;SDS011;10915;54.352;9.074;2024-01-30T02:37:26;32.90;;;27.77;;
21507;SDS011;10915;54.352;9.074;2024-01-30T02:39:51;34.80;;;28.47;;
21507;SDS011;10915;54.352;9.074;2024-01-30T02:42:17;35.17;;;29.30;;
21507;SDS011;10915;54.352;9.074;2024-01-30T02:44:43;38.50;;;30.07;;
21507;SDS011;10915;54.352;9.074;2024-01-30T02:47:08;35.13;;;28.10;;
21507;SDS011;10915;54.352;9.074;2024-01-30T02:49:34;37.70;;;29.93;;
21507;SDS011;10915;54.352;9.074;2024-01-30T02:51:59;34.00;;;27.83;;
21507;SDS011;10915;54.352;9.074;2024-01-30T02:54:25;38.40;;;30.27;;
21507;SDS011;10915;54.352;9.074;2024-01-30T02:56:50;35.17;;;29.50;;
21507;SDS011;10915;54.352;9.074;2024-01-30T02:59:16;37.90;;;29.67;;
21507;SDS011;10915;54.352;9.074;2024-01-30T03:01:45;38.13;;;30.23;;
21507;SDS011;10915;54.352;9.074;2024-01-30T03:04:11;35.37;;;29.80;;
21507;SDS011;10915;54.352;9.074;2024-01-30T03:06:37;35.27;;;29.07;;
21507;SDS011;10915;54.352;9.074;2024-01-30T03:09:03;35.63;;;30.70;;
21507;SDS011;10915;54.352;9.074;2024-01-30T03:11:29;34.47;;;30.23;;
21507;SDS011;10915;54.352;9.074;2024-01-30T03:13:56;41.53;;;31.97;;
21507;SDS011;10915;54.352;9.074;2024-01-30T03:16:21;38.90;;;31.93;;
21507;SDS011;10915;54.352;9.074;2024-01-30T03:18:47;35.20;;;29.00;;
21507;SDS011;10915;54.352;9.074;2024-01-30T03:21:13;37.43;;;31.53;;
21507;SDS011;10915;54.352;9.074;2024-01-30T03:23:39;36.77;;;30.07;;
21507;SDS011;10915;54.352;9.074;2024-01-30T03:26:05;37.90;;;32.03;;
21507;SDS011;10915;54.352;9.074;2024-01-30T03:28:31;37.80;;;31.33;;
21507;SDS011;10915;54.352;9.074;2024-01-30T03:30:57;34.10;;;29.57;;
21507;SDS011;10915;54.352;9.074;2024-01-30T03:33:22;38.23;;;29.83;;
21507;SDS011;10915;54.352;9.074;2024-01-30T03:35:48;38.83;;;31.43;;
21507;SDS011;10915;54.352;9.074;2024-01-30T03:38:14;37.10;;;29.83;;
21507;SDS011;10915;54.352;9.074;2024-01-30T03:40:39;34.87;;;29.07;;
21507;SDS011;10915;54.352;9.074;2024-01-30T03:43:05;35.87;;;30.00;;
21507;SDS011;10915;54.352;9.074;2024-01-30T03:45:31;33.70;;;27.90;;
21507;SDS011;10915;54.352;9.074;2024-01-30T03:47:56;37.87;;;28.30;;
21507;SDS011;10915;54.352;9.074;2024-01-30T03:50:22;32.37;;;26.93;;
21507;SDS011;10915;54.352;9.074;2024-01-30T03:52:47;31.00;;;25.97;;
21507;SDS011;10915;54.352;9.074;2024-01-30T03:55:13;36.67;;;26.87;;
21507;SDS011;10915;54.352;9.074;2024-01-30T03:57:39;33.63;;;27.87;;
21507;SDS011;10915;54.352;9.074;2024-01-30T04:00:04;33.63;;;27.43;;
21507;SDS011;10915;54.352;9.074;2024-01-30T04:02:30;34.00;;;28.10;;
21507;SDS011;10915;54.352;9.074;2024-01-30T04:04:56;31.93;;;26.77;;
21507;SDS011;10915;54.352;9.074;2024-01-30T04:07:21;35.87;;;29.23;;
21507;SDS011;10915;54.352;9.074;2024-01-30T04:09:47;37.47;;;29.13;;
21507;SDS011;10915;54.352;9.074;2024-01-30T04:12:13;33.80;;;28.67;;
21507;SDS011;10915;54.352;9.074;2024-01-30T04:14:39;37.27;;;30.20;;
21507;SDS011;10915;54.352;9.074;2024-01-30T04:17:04;40.13;;;31.47;;
21507;SDS011;10915;54.352;9.074;2024-01-30T04:19:30;38.77;;;32.73;;
21507;SDS011;10915;54.352;9.074;2024-01-30T04:21:55;43.87;;;34.50;;
21507;SDS011;10915;54.352;9.074;2024-01-30T04:24:21;41.30;;;35.83;;
21507;SDS011;10915;54.352;9.074;2024-01-30T04:26:46;42.23;;;35.57;;
21507;SDS011;10915;54.352;9.074;2024-01-30T04:29:12;40.90;;;36.37;;
21507;SDS011;10915;54.352;9.074;2024-01-30T04:31:38;46.07;;;38.20;;
21507;SDS011;10915;54.352;9.074;2024-01-30T04:34:03;45.00;;;37.00;;
21507;SDS011;10915;54.352;9.074;2024-01-30T04:36:29;43.60;;;36.53;;
21507;SDS011;10915;54.352;9.074;2024-01-30T04:38:54;41.27;;;34.57;;
21507;SDS011;10915;54.352;9.074;2024-01-30T04:41:20;38.73;;;33.73;;
21507;SDS011;10915;54.352;9.074;2024-01-30T04:43:45;41.57;;;35.53;;
21507;SDS011;10915;54.352;9.074;2024-01-30T04:46:11;43.23;;;36.30;;
21507;SDS011;10915;54.352;9.074;2024-01-30T04:48:36;46.23;;;37.70;;
21507;SDS011;10915;54.352;9.074;2024-01-30T04:51:02;45.40;;;37.97;;
21507;SDS011;10915;54.352;9.074;2024-01-30T04:53:29;42.20;;;36.37;;
21507;SDS011;10915;54.352;9.074;2024-01-30T04:55:56;45.40;;;38.13;;
21507;SDS011;10915;54.352;9.074;2024-01-30T04:58:21;45.63;;;38.80;;
21507;SDS011;10915;54.352;9.074;2024-01-30T05:00:47;44.90;;;37.07;;
21507;SDS011;10915;54.352;9.074;2024-01-30T05:03:16;37.10;;;32.77;;
21507;SDS011;10915;54.352;9.074;2024-01-30T05:05:43;42.10;;;35.70;;
21507;SDS011;10915;54.352;9.074;2024-01-30T05:08:09;43.13;;;36.30;;
21507;SDS011;10915;54.352;9.074;2024-01-30T05:10:34;48.77;;;39.23;;
21507;SDS011;10915;54.352;9.074;2024-01-30T05:13:00;46.30;;;39.87;;
21507;SDS011;10915;54.352;9.074;2024-01-30T05:15:25;47.13;;;40.40;;
21507;SDS011;10915;54.352;9.074;2024-01-30T05:17:51;47.37;;;39.93;;
21507;SDS011;10915;54.352;9.074;2024-01-30T05:20:16;47.10;;;41.77;;
21507;SDS011;10915;54.352;9.074;2024-01-30T05:22:42;47.50;;;40.37;;
21507;SDS011;10915;54.352;9.074;2024-01-30T05:25:10;50.47;;;41.60;;
21507;SDS011;10915;54.352;9.074;2024-01-30T05:27:37;49.03;;;39.63;;
21507;SDS011;10915;54.352;9.074;2024-01-30T05:30:03;48.97;;;41.80;;
21507;SDS011;10915;54.352;9.074;2024-01-30T05:32:29;44.83;;;39.20;;
21507;SDS011;10915;54.352;9.074;2024-01-30T05:34:55;43.27;;;38.57;;
21507;SDS011;10915;54.352;9.074;2024-01-30T05:37:20;41.70;;;37.00;;
21507;SDS011;10915;54.352;9.074;2024-01-30T05:39:46;40.83;;;36.40;;
21507;SDS011;10915;54.352;9.074;2024-01-30T05:42:12;40.13;;;34.67;;
21507;SDS011;10915;54.352;9.074;2024-01-30T05:44:37;40.20;;;33.97;;
21507;SDS011;10915;54.352;9.074;2024-01-30T05:47:03;37.80;;;32.10;;
21507;SDS011;10915;54.352;9.074;2024-01-30T05:49:29;36.67;;;32.83;;
21507;SDS011;10915;54.352;9.074;2024-01-30T05:51:54;35.67;;;31.20;;
21507;SDS011;10915;54.352;9.074;2024-01-30T05:54:20;34.87;;;30.77;;
21507;SDS011;10915;54.352;9.074;2024-01-30T05:56:46;34.20;;;30.53;;
21507;SDS011;10915;54.352;9.074;2024-01-30T05:59:12;35.10;;;31.17;;
21507;SDS011;10915;54.352;9.074;2024-01-30T06:01:37;36.60;;;30.13;;
21507;SDS011;10915;54.352;9.074;2024-01-30T06:04:03;32.23;;;28.73;;
21507;SDS011;10915;54.352;9.074;2024-01-30T06:06:28;34.20;;;29.43;;
21507;SDS011;10915;54.352;9.074;2024-01-30T06:08:54;33.47;;;29.40;;
21507;SDS011;10915;54.352;9.074;2024-01-30T06:11:21;33.93;;;29.90;;
21507;SDS011;10915;54.352;9.074;2024-01-30T06:13:46;33.40;;;29.87;;
21507;SDS011;10915;54.352;9.074;2024-01-30T06:16:12;34.33;;;30.73;;
21507;SDS011;10915;54.352;9.074;2024-01-30T06:18:38;34.67;;;30.80;;
21507;SDS011;10915;54.352;9.074;2024-01-30T06:21:04;33.50;;;29.87;;
21507;SDS011;10915;54.352;9.074;2024-01-30T06:23:30;33.70;;;30.30;;
21507;SDS011;10915;54.352;9.074;2024-01-30T06:25:55;33.40;;;29.90;;
21507;SDS011;10915;54.352;9.074;2024-01-30T06:28:21;32.97;;;29.23;;
21507;SDS011;10915;54.352;9.074;2024-01-30T06:30:47;32.90;;;29.33;;
21507;SDS011;10915;54.352;9.074;2024-01-30T06:33:12;31.90;;;27.90;;
21507;SDS011;10915;54.352;9.074;2024-01-30T06:35:38;32.23;;;28.60;;
21507;SDS011;10915;54.352;9.074;2024-01-30T06:38:05;32.70;;;27.97;;
21507;SDS011;10915;54.352;9.074;2024-01-30T06:40:31;36.07;;;29.87;;
21507;SDS011;10915;54.352;9.074;2024-01-30T06:42:57;34.20;;;29.73;;
21507;SDS011;10915;54.352;9.074;2024-01-30T06:45:22;32.70;;;28.60;;
21507;SDS011;10915;54.352;9.074;2024-01-30T06:47:48;34.23;;;30.13;;
21507;SDS011;10915;54.352;9.074;2024-01-30T06:50:13;33.70;;;28.80;;
21507;SDS011;10915;54.352;9.074;2024-01-30T06:52:39;36.47;;;29.37;;
21507;SDS011;10915;54.352;9.074;2024-01-30T06:55:05;32.80;;;29.33;;
21507;SDS011;10915;54.352;9.074;2024-01-30T06:57:31;32.90;;;29.30;;
21507;SDS011;10915;54.352;9.074;2024-01-30T06:59:56;32.33;;;28.93;;
21507;SDS011;10915;54.352;9.074;2024-01-30T07:02:22;32.80;;;29.40;;
21507;SDS011;10915;54.352;9.074;2024-01-30T07:04:47;33.23;;;29.47;;
21507;SDS011;10915;54.352;9.074;2024-01-30T07:07:14;34.57;;;29.47;;
21507;SDS011;10915;54.352;9.074;2024-01-30T07:09:40;32.73;;;29.00;;
21507;SDS011;10915;54.352;9.074;2024-01-30T07:12:06;33.23;;;29.27;;
21507;SDS011;10915;54.352;9.074;2024-01-30T07:14:32;36.53;;;30.50;;
21507;SDS011;10915;54.352;9.074;2024-01-30T07:16:57;33.33;;;29.77;;
21507;SDS011;10915;54.352;9.074;2024-01-30T07:19:23;32.70;;;28.63;;
21507;SDS011;10915;54.352;9.074;2024-01-30T07:21:49;33.30;;;29.70;;
21507;SDS011;10915;54.352;9.074;2024-01-30T07:24:14;32.60;;;28.90;;
21507;SDS011;10915;54.352;9.074;2024-01-30T07:26:40;32.57;;;28.77;;
21507;SDS011;10915;54.352;9.074;2024-01-30T07:29:06;33.63;;;28.57;;
21507;SDS011;10915;54.352;9.074;2024-01-30T07:31:31;31.10;;;27.80;;
21507;SDS011;10915;54.352;9.074;2024-01-30T07:33:57;31.70;;;28.27;;
21507;SDS011;10915;54.352;9.074;2024-01-30T07:36:23;30.13;;;27.03;;
21507;SDS011;10915;54.352;9.074;2024-01-30T07:38:48;31.67;;;28.20;;
21507;SDS011;10915;54.352;9.074;2024-01-30T07:41:14;27.67;;;24.77;;
21507;SDS011;10915;54.352;9.074;2024-01-30T07:43:39;29.43;;;26.23;;
21507;SDS011;10915;54.352;9.074;2024-01-30T07:46:05;29.40;;;24.97;;
21507;SDS011;10915;54.352;9.074;2024-01-30T07:48:31;28.27;;;25.37;;
21507;SDS011;10915;54.352;9.074;2024-01-30T07:50:59;30.93;;;26.30;;
21507;SDS011;10915;54.352;9.074;2024-01-30T07:53:25;30.13;;;26.87;;
21507;SDS011;10915;54.352;9.074;2024-01-30T07:55:50;29.63;;;26.60;;
21507;SDS011;10915;54.352;9.074;2024-01-30T07:58:17;29.30;;;26.27;;
21507;SDS011;10915;54.352;9.074;2024-01-30T08:00:42;28.20;;;25.07;;
21507;SDS011;10915;54.352;9.074;2024-01-30T08:03:08;30.90;;;26.10;;
21507;SDS011;10915;54.352;9.074;2024-01-30T08:05:37;29.97;;;26.37;;
21507;SDS011;10915;54.352;9.074;2024-01-30T08:08:04;28.27;;;25.27;;
21507;SDS011;10915;54.352;9.074;2024-01-30T08:10:30;29.20;;;25.93;;
21507;SDS011;10915;54.352;9.074;2024-01-30T08:12:55;28.03;;;25.00;;
21507;SDS011;10915;54.352;9.074;2024-01-30T08:15:21;31.80;;;26.13;;
21507;SDS011;10915;54.352;9.074;2024-01-30T08:17:47;30.60;;;26.10;;
21507;SDS011;10915;54.352;9.074;2024-01-30T08:20:12;27.67;;;24.67;;
21507;SDS011;10915;54.352;9.074;2024-01-30T08:22:38;29.23;;;25.67;;
21507;SDS011;10915;54.352;9.074;2024-01-30T08:25:05;27.87;;;25.07;;
21507;SDS011;10915;54.352;9.074;2024-01-30T08:27:31;29.87;;;26.67;;
21507;SDS011;10915;54.352;9.074;2024-01-30T08:29:57;30.27;;;26.87;;
21507;SDS011;10915;54.352;9.074;2024-01-30T08:32:22;28.37;;;25.33;;
21507;SDS011;10915;54.352;9.074;2024-01-30T08:34:49;29.00;;;25.57;;
21507;SDS011;10915;54.352;9.074;2024-01-30T08:37:14;29.23;;;25.30;;
21507;SDS011;10915;54.352;9.074;2024-01-30T08:39:41;27.53;;;24.63;;
21507;SDS011;10915;54.352;9.074;2024-01-30T08:42:08;28.40;;;24.93;;
21507;SDS011;10915;54.352;9.074;2024-01-30T08:44:33;28.80;;;24.50;;
21507;SDS011;10915;54.352;9.074;2024-01-30T08:46:59;28.83;;;24.87;;
21507;SDS011;10915;54.352;9.074;2024-01-30T08:49:24;25.83;;;23.03;;
21507;SDS011;10915;54.352;9.074;2024-01-30T08:51:50;27.20;;;23.40;;
21507;SDS011;10915;54.352;9.074;2024-01-30T08:54:15;27.13;;;23.27;;
21507;SDS011;10915;54.352;9.074;2024-01-30T08:56:41;27.40;;;23.57;;
21507;SDS011;10915;54.352;9.074;2024-01-30T08:59:07;30.07;;;24.80;;
21507;SDS011;10915;54.352;9.074;2024-01-30T09:01:32;26.60;;;23.83;;
21507;SDS011;10915;54.352;9.074;2024-01-30T09:03:58;27.80;;;24.03;;
21507;SDS011;10915;54.352;9.074;2024-01-30T09:06:23;26.13;;;23.27;;
21507;SDS011;10915;54.352;9.074;2024-01-30T09:08:51;26.10;;;23.30;;
21507;SDS011;10915;54.352;9.074;2024-01-30T09:11:17;26.43;;;23.57;;
21507;SDS011;10915;54.352;9.074;2024-01-30T09:13:43;26.33;;;22.73;;
21507;SDS011;10915;54.352;9.074;2024-01-30T09:16:08;26.13;;;23.07;;
21507;SDS011;10915;54.352;9.074;2024-01-30T09:18:34;30.73;;;23.00;;
21507;SDS011;10915;54.352;9.074;2024-01-30T09:21:00;25.63;;;22.87;;
21507;SDS011;10915;54.352;9.074;2024-01-30T09:23:27;28.83;;;24.07;;
21507;SDS011;10915;54.352;9.074;2024-01-30T09:25:52;25.93;;;23.07;;
21507;SDS011;10915;54.352;9.074;2024-01-30T09:28:18;30.93;;;23.17;;
21507;SDS011;10915;54.352;9.074;2024-01-30T09:30:44;26.57;;;21.87;;
21507;SDS011;10915;54.352;9.074;2024-01-30T09:33:09;26.70;;;22.80;;
21507;SDS011;10915;54.352;9.074;2024-01-30T09:35:38;25.13;;;22.43;;
21507;SDS011;10915;54.352;9.074;2024-01-30T09:38:04;25.20;;;20.83;;
21507;SDS011;10915;54.352;9.074;2024-01-30T09:40:30;27.73;;;21.63;;
21507;SDS011;10915;54.352;9.074;2024-01-30T09:42:56;25.07;;;21.97;;
21507;SDS011;10915;54.352;9.074;2024-01-30T09:45:25;23.67;;;21.13;;
21507;SDS011;10915;54.352;9.074;2024-01-30T09:47:51;26.87;;;21.20;;
21507;SDS011;10915;54.352;9.074;2024-01-30T09:50:17;22.33;;;19.97;;
21507;SDS011;10915;54.352;9.074;2024-01-30T09:52:44;23.43;;;20.70;;
21507;SDS011;10915;54.352;9.074;2024-01-30T09:55:10;59.37;;;22.03;;
21507;SDS011;10915;54.352;9.074;2024-01-30T09:57:36;23.47;;;19.53;;
21507;SDS011;10915;54.352;9.074;2024-01-30T10:00:05;23.40;;;19.93;;
21507;SDS011;10915;54.352;9.074;2024-01-30T10:02:36;23.30;;;19.70;;
21507;SDS011;10915;54.352;9.074;2024-01-30T10:05:03;25.47;;;19.53;;
21507;SDS011;10915;54.352;9.074;2024-01-30T10:07:30;23.37;;;20.47;;
21507;SDS011;10915;54.352;9.074;2024-01-30T10:09:55;24.03;;;19.67;;
21507;SDS011;10915;54.352;9.074;2024-01-30T10:12:21;29.80;;;18.93;;
21507;SDS011;10915;54.352;9.074;2024-01-30T10:14:47;29.53;;;20.00;;
21507;SDS011;10915;54.352;9.074;2024-01-30T10:17:13;26.40;;;18.97;;
21507;SDS011;10915;54.352;9.074;2024-01-30T10:19:39;24.93;;;18.03;;
21507;SDS011;10915;54.352;9.074;2024-01-30T10:22:05;22.10;;;18.47;;
21507;SDS011;10915;54.352;9.074;2024-01-30T10:24:32;24.40;;;19.13;;
21507;SDS011;10915;54.352;9.074;2024-01-30T10:26:58;24.20;;;18.57;;
21507;SDS011;10915;54.352;9.074;2024-01-30T10:29:24;22.47;;;17.63;;
21507;SDS011;10915;54.352;9.074;2024-01-30T10:32:00;23.73;;;18.67;;
21507;SDS011;10915;54.352;9.074;2024-01-30T10:34:27;23.07;;;17.53;;
21507;SDS011;10915;54.352;9.074;2024-01-30T10:39:40;19.37;;;16.87;;
21507;SDS011;10915;54.352;9.074;2024-01-30T10:42:09;21.57;;;16.50;;
21507;SDS011;10915;54.352;9.074;2024-01-30T10:47:11;20.13;;;15.63;;
21507;SDS011;10915;54.352;9.074;2024-01-30T10:49:39;18.10;;;15.60;;
21507;SDS011;10915;54.352;9.074;2024-01-30T10:52:07;21.53;;;16.37;;
21507;SDS011;10915;54.352;9.074;2024-01-30T10:54:35;22.37;;;15.63;;
21507;SDS011;10915;54.352;9.074;2024-01-30T10:57:02;20.30;;;15.27;;
21507;SDS011;10915;54.352;9.074;2024-01-30T10:59:29;17.13;;;14.77;;
21507;SDS011;10915;54.352;9.074;2024-01-30T11:01:57;20.40;;;15.90;;
21507;SDS011;10915;54.352;9.074;2024-01-30T11:04:24;19.10;;;14.57;;
21507;SDS011;10915;54.352;9.074;2024-01-30T11:06:50;19.93;;;15.30;;
21507;SDS011;10915;54.352;9.074;2024-01-30T11:09:17;19.07;;;14.73;;
21507;SDS011;10915;54.352;9.074;2024-01-30T11:11:49;23.17;;;16.00;;
21507;SDS011;10915;54.352;9.074;2024-01-30T11:14:29;19.27;;;15.40;;
21507;SDS011;10915;54.352;9.074;2024-01-30T11:16:58;18.83;;;15.57;;
21507;SDS011;10915;54.352;9.074;2024-01-30T11:19:25;20.37;;;16.13;;
21507;SDS011;10915;54.352;9.074;2024-01-30T11:21:54;19.77;;;15.87;;
21507;SDS011;10915;54.352;9.074;2024-01-30T11:24:22;20.90;;;15.30;;
21507;SDS011;10915;54.352;9.074;2024-01-30T11:26:57;23.97;;;16.60;;
21507;SDS011;10915;54.352;9.074;2024-01-30T11:29:28;19.47;;;15.67;;
21507;SDS011;10915;54.352;9.074;2024-01-30T11:31:54;20.83;;;15.60;;
21507;SDS011;10915;54.352;9.074;2024-01-30T11:34:20;21.70;;;16.50;;
21507;SDS011;10915;54.352;9.074;2024-01-30T11:36:53;26.10;;;16.33;;
21507;SDS011;10915;54.352;9.074;2024-01-30T11:39:24;21.93;;;16.57;;
21507;SDS011;10915;54.352;9.074;2024-01-30T11:41:51;21.00;;;16.17;;
21507;SDS011;10915;54.352;9.074;2024-01-30T11:44:18;21.10;;;17.33;;
21507;SDS011;10915;54.352;9.074;2024-01-30T11:46:48;24.03;;;16.20;;
21507;SDS011;10915;54.352;9.074;2024-01-30T11:49:14;20.57;;;16.40;;
21507;SDS011;10915;54.352;9.074;2024-01-30T11:51:42;29.90;;;17.27;;
21507;SDS011;10915;54.352;9.074;2024-01-30T11:54:08;19.73;;;15.47;;
21507;SDS011;10915;54.352;9.074;2024-01-30T11:56:34;21.63;;;15.53;;
21507;SDS011;10915;54.352;9.074;2024-01-30T11:59:01;24.37;;;17.90;;
21507;SDS011;10915;54.352;9.074;2024-01-30T12:01:27;20.50;;;16.10;;
21507;SDS011;10915;54.352;9.074;2024-01-30T12:03:53;18.90;;;15.50;;
21507;SDS011;10915;54.352;9.074;2024-01-30T12:06:18;20.40;;;15.23;;
21507;SDS011;10915;54.352;9.074;2024-01-30T12:09:00;21.73;;;16.07;;
21507;SDS011;10915;54.352;9.074;2024-01-30T12:11:29;23.23;;;16.13;;
21507;SDS011;10915;54.352;9.074;2024-01-30T12:13:55;24.90;;;16.30;;
21507;SDS011;10915;54.352;9.074;2024-01-30T12:16:21;23.97;;;15.97;;
21507;SDS011;10915;54.352;9.074;2024-01-30T12:18:47;23.47;;;15.50;;
21507;SDS011;10915;54.352;9.074;2024-01-30T12:21:15;20.73;;;15.77;;
21507;SDS011;10915;54.352;9.074;2024-01-30T12:23:42;22.97;;;16.00;;
21507;SDS011;10915;54.352;9.074;2024-01-30T12:26:08;22.83;;;15.87;;
21507;SDS011;10915;54.352;9.074;2024-01-30T12:28:33;21.57;;;15.57;;
21507;SDS011;10915;54.352;9.074;2024-01-30T12:31:03;24.57;;;16.33;;
21507;SDS011;10915;54.352;9.074;2024-01-30T12:33:29;22.27;;;16.23;;
21507;SDS011;10915;54.352;9.074;2024-01-30T12:35:55;20.90;;;15.60;;
21507;SDS011;10915;54.352;9.074;2024-01-30T12:38:24;21.57;;;15.53;;
21507;SDS011;10915;54.352;9.074;2024-01-30T12:40:53;21.27;;;15.90;;
21507;SDS011;10915;54.352;9.074;2024-01-30T12:43:20;20.77;;;15.37;;
21507;SDS011;10915;54.352;9.074;2024-01-30T12:45:47;20.00;;;15.70;;
21507;SDS011;10915;54.352;9.074;2024-01-30T12:48:12;21.10;;;15.53;;
21507;SDS011;10915;54.352;9.074;2024-01-30T12:53:12;21.90;;;15.50;;
21507;SDS011;10915;54.352;9.074;2024-01-30T12:55:38;23.77;;;16.37;;
21507;SDS011;10915;54.352;9.074;2024-01-30T12:58:03;23.97;;;16.47;;
21507;SDS011;10915;54.352;9.074;2024-01-30T13:00:29;24.00;;;16.40;;
21507;SDS011;10915;54.352;9.074;2024-01-30T13:02:55;22.80;;;16.37;;
21507;SDS011;10915;54.352;9.074;2024-01-30T13:05:20;22.60;;;15.87;;
21507;SDS011;10915;54.352;9.074;2024-01-30T13:07:46;22.77;;;16.07;;
21507;SDS011;10915;54.352;9.074;2024-01-30T13:10:12;25.77;;;16.10;;
21507;SDS011;10915;54.352;9.074;2024-01-30T13:12:38;23.03;;;16.13;;
21507;SDS011;10915;54.352;9.074;2024-01-30T13:15:04;24.73;;;16.30;;
21507;SDS011;10915;54.352;9.074;2024-01-30T13:17:30;23.13;;;16.73;;
21507;SDS011;10915;54.352;9.074;2024-01-30T13:19:56;21.43;;;15.73;;
21507;SDS011;10915;54.352;9.074;2024-01-30T13:22:22;24.43;;;15.83;;
21507;SDS011;10915;54.352;9.074;2024-01-30T13:24:49;23.70;;;15.73;;
21507;SDS011;10915;54.352;9.074;2024-01-30T13:27:15;22.53;;;16.00;;
21507;SDS011;10915;54.352;9.074;2024-01-30T13:29:40;21.90;;;15.73;;
21507;SDS011;10915;54.352;9.074;2024-01-30T13:32:06;24.00;;;15.67;;
21507;SDS011;10915;54.352;9.074;2024-01-30T13:34:31;22.40;;;15.73;;
21507;SDS011;10915;54.352;9.074;2024-01-30T13:36:57;21.37;;;15.50;;
21507;SDS011;10915;54.352;9.074;2024-01-30T13:39:23;21.60;;;15.40;;
21507;SDS011;10915;54.352;9.074;2024-01-30T13:41:49;22.80;;;14.33;;
21507;SDS011;10915;54.352;9.074;2024-01-30T13:44:15;21.40;;;14.47;;
21507;SDS011;10915;54.352;9.074;2024-01-30T13:46:42;18.90;;;14.07;;
21507;SDS011;10915;54.352;9.074;2024-01-30T13:49:08;21.50;;;13.83;;
21507;SDS011;10915;54.352;9.074;2024-01-30T13:51:33;22.90;;;15.00;;
21507;SDS011;10915;54.352;9.074;2024-01-30T13:53:59;20.47;;;14.63;;
21507;SDS011;10915;54.352;9.074;2024-01-30T13:56:25;20.50;;;15.30;;
21507;SDS011;10915;54.352;9.074;2024-01-30T13:58:51;21.27;;;15.17;;
21507;SDS011;10915;54.352;9.074;2024-01-30T14:01:17;20.80;;;15.10;;
21507;SDS011;10915;54.352;9.074;2024-01-30T14:03:44;25.80;;;16.60;;
21507;SDS011;10915;54.352;9.074;2024-01-30T14:06:09;22.07;;;16.73;;
21507;SDS011;10915;54.352;9.074;2024-01-30T14:08:36;23.33;;;16.93;;
21507;SDS011;10915;54.352;9.074;2024-01-30T14:11:01;28.93;;;17.10;;
21507;SDS011;10915;54.352;9.074;2024-01-30T14:13:27;28.57;;;19.67;;
21507;SDS011;10915;54.352;9.074;2024-01-30T14:15:52;27.60;;;19.37;;
21507;SDS011;10915;54.352;9.074;2024-01-30T14:18:18;32.07;;;21.93;;
21507;SDS011;10915;54.352;9.074;2024-01-30T14:20:44;25.10;;;19.90;;
21507;SDS011;10915;54.352;9.074;2024-01-30T14:23:10;31.03;;;22.90;;